createdAt,value
2022-10-04T00:01:52.073Z,0.88
2022-10-04T00:04:29.388Z,0.75
2022-10-04T00:07:12.667Z,0.88
2022-10-04T00:09:47.540Z,0.70
2022-10-04T00:12:24.573Z,0.90
2022-10-04T00:14:55.604Z,0.80
2022-10-04T00:17:27.346Z,0.82
2022-10-04T00:19:56.400Z,0.90
2022-10-04T00:22:32.564Z,0.90
2022-10-04T00:25:21.136Z,0.70
2022-10-04T00:28:27.984Z,0.90
2022-10-04T00:31:16.978Z,0.75
2022-10-04T00:33:51.050Z,0.80
2022-10-04T00:36:24.831Z,0.90
2022-10-04T00:39:04.897Z,0.90
2022-10-04T00:41:47.989Z,0.80
2022-10-04T00:44:23.820Z,0.90
2022-10-04T00:46:53.958Z,1.00
2022-10-04T00:49:26.705Z,1.10
2022-10-04T00:52:23.530Z,0.80
2022-10-04T00:54:57.106Z,0.82
2022-10-04T00:57:54.128Z,0.90
2022-10-04T01:00:22.754Z,1.00
2022-10-04T01:03:01.340Z,1.00
2022-10-04T01:05:36.269Z,1.00
2022-10-04T01:08:33.147Z,0.80
2022-10-04T01:11:00.691Z,0.90
2022-10-04T01:13:37.380Z,1.00
2022-10-04T01:16:24.990Z,0.82
2022-10-04T01:18:53.220Z,0.82
2022-10-04T01:21:20.766Z,1.10
2022-10-04T01:23:53.539Z,0.70
2022-10-04T01:26:30.339Z,0.98
2022-10-04T01:29:01.652Z,0.90
2022-10-04T01:31:31.453Z,0.80
2022-10-04T01:34:00.685Z,1.10
2022-10-04T01:36:29.410Z,1.00
2022-10-04T01:38:57.761Z,0.80
2022-10-04T01:41:36.699Z,0.88
2022-10-04T01:44:09.605Z,1.00
2022-10-04T01:46:40.340Z,1.05
2022-10-04T01:51:44.931Z,0.77
2022-10-04T01:54:24.937Z,0.88
2022-10-04T01:57:17.154Z,0.80
2022-10-04T02:00:08.401Z,0.80
2022-10-04T02:05:31.688Z,1.00
2022-10-04T02:08:05.910Z,1.00
2022-10-04T02:10:41.006Z,0.75
2022-10-04T02:13:15.432Z,1.10
2022-10-04T02:15:44.819Z,1.10
2022-10-04T02:18:14.869Z,0.90
2022-10-04T02:20:43.994Z,0.93
2022-10-04T02:23:13.129Z,1.00
2022-10-04T02:25:41.242Z,0.98
2022-10-04T02:28:16.268Z,1.50
2022-10-04T02:31:12.334Z,1.00
2022-10-04T02:33:45.913Z,1.10
2022-10-04T02:36:14.226Z,0.85
2022-10-04T02:38:50.484Z,1.27
2022-10-04T02:41:27.960Z,1.00
2022-10-04T02:44:32.996Z,1.17
2022-10-04T02:47:14.560Z,1.00
2022-10-04T02:52:39.678Z,1.00
2022-10-04T02:55:18.703Z,0.80
2022-10-04T02:57:47.377Z,1.10
2022-10-04T03:00:32.668Z,1.10
2022-10-04T03:03:17.111Z,0.90
2022-10-04T03:05:54.751Z,1.20
2022-10-04T03:08:22.935Z,1.50
2022-10-04T03:10:51.135Z,0.90
2022-10-04T03:13:21.425Z,1.10
2022-10-04T03:15:50.569Z,1.05
2022-10-04T03:18:19.736Z,1.00
2022-10-04T03:20:48.447Z,1.08
2022-10-04T03:23:19.705Z,1.20
2022-10-04T03:25:52.310Z,1.00
2022-10-04T03:28:20.861Z,0.90
2022-10-04T03:30:50.054Z,1.98
2022-10-04T03:33:20.999Z,2.65
2022-10-04T03:35:58.980Z,4.20
2022-10-04T03:38:28.440Z,3.65
2022-10-04T03:41:00.495Z,3.30
2022-10-04T03:43:34.667Z,2.20
2022-10-04T03:46:05.533Z,1.50
2022-10-04T03:48:53.697Z,1.30
2022-10-04T03:51:26.619Z,1.00
2022-10-04T03:53:57.890Z,1.20
2022-10-04T03:56:31.677Z,1.20
2022-10-04T03:58:59.900Z,0.98
2022-10-04T04:01:36.502Z,1.10
2022-10-04T04:04:17.195Z,1.10
2022-10-04T04:06:57.381Z,1.43
2022-10-04T04:09:45.844Z,1.20
2022-10-04T04:12:35.314Z,1.55
2022-10-04T04:15:04.430Z,1.10
2022-10-04T04:17:39.334Z,1.27
2022-10-04T04:20:19.918Z,1.10
2022-10-04T04:22:59.154Z,1.05
2022-10-04T04:25:32.138Z,1.02
2022-10-04T04:28:17.715Z,1.12
2022-10-04T04:30:50.151Z,1.08
2022-10-04T04:33:35.338Z,6.68
2022-10-04T04:36:06.802Z,5.22
2022-10-04T04:41:11.154Z,18.95
2022-10-04T04:43:43.932Z,32.08
2022-10-04T04:46:28.324Z,4.22
2022-10-04T04:49:05.414Z,3.78
2022-10-04T04:51:33.678Z,1.73
2022-10-04T04:54:03.835Z,1.70
2022-10-04T04:56:31.878Z,1.90
2022-10-04T04:59:04.566Z,1.52
2022-10-04T05:01:36.166Z,1.70
2022-10-04T05:04:06.988Z,1.70
2022-10-04T05:06:38.073Z,1.40
2022-10-04T05:09:06.804Z,1.40
2022-10-04T05:11:39.620Z,1.20
2022-10-04T05:14:14.267Z,1.48
2022-10-04T05:16:51.187Z,2.75
2022-10-04T05:19:30.509Z,11.27
2022-10-04T05:22:01.140Z,1.90
2022-10-04T05:24:34.769Z,1.40
2022-10-04T05:27:05.982Z,1.10
2022-10-04T05:29:40.880Z,1.48
2022-10-04T05:32:40.754Z,1.42
2022-10-04T05:35:20.353Z,1.70
2022-10-04T05:37:59.076Z,2.03
2022-10-04T05:40:38.262Z,1.83
2022-10-04T05:43:37.673Z,2.28
2022-10-04T05:46:18.665Z,2.22
2022-10-04T05:48:52.808Z,2.50
2022-10-04T05:51:24.480Z,4.93
2022-10-04T05:53:52.736Z,7.80
2022-10-04T05:56:55.339Z,8.80
2022-10-04T05:59:30.616Z,8.07
2022-10-04T06:02:19.752Z,4.87
2022-10-04T06:05:10.007Z,3.65
2022-10-04T06:07:46.862Z,2.90
2022-10-04T06:10:26.807Z,2.40
2022-10-04T06:13:00.472Z,2.00
2022-10-04T06:15:43.750Z,1.87
2022-10-04T06:18:29.417Z,1.48
2022-10-04T06:21:20.373Z,1.50
2022-10-04T06:23:57.798Z,1.20
2022-10-04T06:26:31.189Z,1.30
2022-10-04T06:29:05.048Z,1.58
2022-10-04T06:31:32.913Z,1.50
2022-10-04T06:34:39.730Z,1.17
2022-10-04T06:37:31.316Z,1.20
2022-10-04T06:40:30.711Z,1.48
2022-10-04T06:43:23.804Z,1.50
2022-10-04T06:46:16.897Z,1.20
2022-10-04T06:49:03.381Z,1.40
2022-10-04T06:52:08.780Z,1.12
2022-10-04T06:54:58.158Z,1.30
2022-10-04T06:58:08.584Z,1.17
2022-10-04T07:00:46.086Z,1.42
2022-10-04T07:03:30.210Z,1.60
2022-10-04T07:06:04.986Z,1.27
2022-10-04T07:08:50.770Z,1.35
2022-10-04T07:11:25.954Z,1.37
2022-10-04T07:14:11.412Z,1.48
2022-10-04T07:16:56.765Z,1.73
2022-10-04T07:19:36.647Z,1.55
2022-10-04T07:22:15.245Z,1.23
2022-10-04T07:25:07.370Z,1.60
2022-10-04T07:28:11.747Z,1.45
2022-10-04T07:30:45.792Z,1.40
2022-10-04T07:33:18.737Z,1.50
2022-10-04T07:35:51.933Z,1.80
2022-10-04T07:38:26.636Z,1.87
2022-10-04T07:40:57.332Z,1.42
2022-10-04T07:46:06.315Z,1.35
2022-10-04T07:48:34.418Z,1.58
2022-10-04T07:51:19.121Z,1.50
2022-10-04T07:54:01.944Z,1.50
2022-10-04T07:56:57.382Z,1.33
2022-10-04T08:00:04.099Z,1.17
2022-10-04T08:02:51.661Z,1.70
2022-10-04T08:05:29.422Z,1.40
2022-10-04T08:08:15.638Z,1.42
2022-10-04T08:10:50.667Z,1.30
2022-10-04T08:13:32.890Z,1.90
2022-10-04T08:16:11.100Z,1.85
2022-10-04T08:18:47.681Z,1.70
2022-10-04T08:21:26.854Z,1.65
2022-10-04T08:24:15.385Z,1.40
2022-10-04T08:26:58.339Z,1.50
2022-10-04T08:29:52.556Z,1.37
2022-10-04T08:32:29.316Z,1.30
2022-10-04T08:35:28.785Z,1.30
2022-10-04T08:38:24.719Z,1.60
2022-10-04T08:41:13.327Z,1.45
2022-10-04T08:44:23.254Z,1.70
2022-10-04T08:47:10.697Z,1.37
2022-10-04T08:50:07.501Z,1.65
2022-10-04T08:52:57.360Z,1.25
2022-10-04T08:55:46.988Z,1.62
2022-10-04T08:58:26.278Z,1.67
2022-10-04T09:01:10.205Z,1.52
2022-10-04T09:04:05.631Z,1.37
2022-10-04T09:07:15.052Z,1.30
2022-10-04T09:09:55.335Z,1.12
2022-10-04T09:12:45.067Z,1.65
2022-10-04T09:15:31.353Z,1.58
2022-10-04T09:18:11.914Z,1.30
2022-10-04T09:20:48.305Z,1.90
2022-10-04T09:23:41.861Z,1.50
2022-10-04T09:26:36.972Z,1.87
2022-10-04T09:29:42.002Z,1.90
2022-10-04T09:32:21.625Z,1.40
2022-10-04T09:35:06.450Z,1.27
2022-10-04T09:37:59.882Z,1.40
2022-10-04T09:41:09.790Z,1.55
2022-10-04T09:44:02.532Z,1.27
2022-10-04T09:46:53.185Z,1.15
2022-10-04T09:49:54.630Z,1.42
2022-10-04T09:52:40.106Z,1.60
2022-10-04T09:55:20.681Z,1.60
2022-10-04T10:01:02.774Z,1.27
2022-10-04T10:04:28.584Z,1.35
2022-10-04T10:07:14.296Z,1.67
2022-10-04T10:10:26.948Z,1.27
2022-10-04T10:13:40.822Z,1.70
2022-10-04T10:16:45.633Z,1.17
2022-10-04T10:19:19.396Z,1.50
2022-10-04T10:22:13.603Z,1.35
2022-10-04T10:25:19.043Z,1.62
2022-10-04T10:28:20.606Z,1.50
2022-10-04T10:31:08.844Z,1.67
2022-10-04T10:33:39.748Z,1.20
2022-10-04T10:39:44.047Z,1.30
2022-10-04T10:42:41.077Z,1.40
2022-10-04T10:45:14.834Z,1.35
2022-10-04T10:48:04.943Z,1.30
2022-10-04T10:51:00.744Z,1.37
2022-10-04T10:53:51.028Z,1.40
2022-10-04T10:57:00.862Z,1.20
2022-10-04T10:59:49.994Z,1.17
2022-10-04T11:02:50.062Z,1.30
2022-10-04T11:05:46.054Z,1.30
2022-10-04T11:09:11.739Z,1.27
2022-10-04T11:11:45.211Z,1.27
2022-10-04T11:14:50.639Z,1.37
2022-10-04T11:17:27.567Z,3.10
2022-10-04T11:20:06.811Z,1.60
2022-10-04T11:22:53.441Z,1.23
2022-10-04T11:25:39.847Z,1.40
2022-10-04T11:28:22.386Z,1.42
2022-10-04T11:30:59.065Z,1.58
2022-10-04T11:33:30.039Z,1.10
2022-10-04T11:36:24.570Z,1.30
2022-10-04T11:38:57.909Z,0.88
2022-10-04T11:41:50.238Z,1.20
2022-10-04T11:44:31.170Z,1.30
2022-10-04T11:49:35.756Z,1.30
2022-10-04T11:52:25.563Z,1.77
2022-10-04T11:55:31.294Z,1.17
2022-10-04T11:58:20.135Z,1.58
2022-10-04T12:01:11.308Z,1.40
2022-10-04T12:04:04.273Z,1.00
2022-10-04T12:06:44.499Z,1.10
2022-10-04T12:09:18.582Z,1.10
2022-10-04T12:12:04.815Z,0.93
2022-10-04T12:14:53.327Z,1.20
2022-10-04T12:17:59.935Z,1.12
2022-10-04T12:20:53.337Z,1.35
2022-10-04T12:23:42.941Z,1.17
2022-10-04T12:26:19.770Z,1.02
2022-10-04T12:28:56.377Z,1.10
2022-10-04T12:31:28.533Z,1.30
2022-10-04T12:34:16.124Z,1.00
2022-10-04T12:36:49.935Z,0.90
2022-10-04T12:39:36.321Z,1.20
2022-10-04T12:42:31.603Z,1.30
2022-10-04T12:45:03.820Z,1.10
2022-10-04T12:47:48.624Z,1.27
2022-10-04T12:50:31.555Z,1.10
2022-10-04T12:53:17.679Z,1.10
2022-10-04T12:56:13.358Z,2.22
2022-10-04T12:58:57.652Z,1.15
2022-10-04T13:01:46.693Z,1.08
2022-10-04T13:04:44.063Z,2.03
2022-10-04T13:07:29.968Z,1.20
2022-10-04T13:10:28.450Z,1.67
2022-10-04T13:13:33.537Z,1.27
2022-10-04T13:19:23.850Z,1.17
2022-10-04T13:22:10.634Z,1.00
2022-10-04T13:24:58.279Z,1.00
2022-10-04T13:27:38.514Z,1.10
2022-10-04T13:30:26.616Z,0.73
2022-10-04T13:33:10.059Z,1.20
2022-10-04T13:35:54.443Z,1.00
2022-10-04T13:38:40.775Z,0.88
2022-10-04T13:41:39.846Z,1.00
2022-10-04T13:44:44.051Z,1.10
2022-10-04T13:47:38.047Z,1.08
2022-10-04T13:50:17.497Z,0.98
2022-10-04T13:53:39.195Z,1.20
2022-10-04T13:56:29.144Z,1.00
2022-10-04T13:59:17.557Z,1.00
2022-10-04T14:02:14.081Z,0.70
2022-10-04T14:04:51.129Z,0.93
2022-10-04T14:07:49.525Z,1.23
2022-10-04T14:10:54.366Z,1.52
2022-10-04T14:20:39.343Z,1.20
2022-10-04T14:23:22.444Z,1.20
2022-10-04T14:26:25.274Z,1.50
2022-10-04T14:29:15.531Z,1.25
2022-10-04T14:31:55.294Z,1.45
2022-10-04T14:34:44.291Z,2.00
2022-10-04T14:37:29.008Z,2.28
2022-10-04T14:40:26.893Z,2.40
2022-10-04T14:43:00.482Z,1.80
2022-10-04T14:45:49.810Z,2.20
2022-10-04T14:48:36.249Z,1.95
2022-10-04T14:51:26.647Z,2.42
2022-10-04T14:54:03.087Z,1.70
2022-10-04T14:57:08.683Z,1.80
2022-10-04T14:59:59.059Z,1.40
2022-10-04T15:02:30.272Z,1.60
2022-10-04T15:05:00.727Z,1.30
2022-10-04T15:07:40.900Z,1.58
2022-10-04T15:10:23.883Z,1.45
2022-10-04T15:13:11.475Z,1.55
2022-10-04T15:16:02.783Z,1.40
2022-10-04T15:19:04.413Z,1.52
2022-10-04T15:24:42.546Z,2.58
2022-10-04T15:27:28.373Z,2.70
2022-10-04T15:30:24.441Z,2.10
2022-10-04T15:33:20.654Z,3.87
2022-10-04T15:36:43.766Z,7.10
2022-10-04T15:39:26.517Z,5.53
2022-10-04T15:42:14.901Z,2.83
2022-10-04T15:45:04.904Z,2.72
2022-10-04T15:47:50.315Z,2.07
2022-10-04T15:50:42.805Z,2.10
2022-10-04T15:53:43.222Z,1.70
2022-10-04T15:56:22.311Z,1.50
2022-10-04T15:58:56.059Z,2.67
2022-10-04T16:01:42.825Z,3.00
2022-10-04T16:04:32.027Z,2.87
2022-10-04T16:07:45.269Z,2.58
2022-10-04T16:10:23.881Z,2.10
2022-10-04T16:13:15.798Z,1.85
2022-10-04T16:15:50.358Z,3.33
2022-10-04T16:18:27.033Z,2.70
2022-10-04T16:21:16.745Z,2.35
2022-10-04T16:23:45.330Z,2.67
2022-10-04T16:26:34.014Z,2.30
2022-10-04T16:29:13.676Z,2.60
2022-10-04T16:31:56.051Z,3.42
2022-10-04T16:34:36.121Z,4.70
2022-10-04T16:37:10.094Z,6.05
2022-10-04T16:40:06.704Z,6.07
2022-10-04T16:43:04.455Z,6.18
2022-10-04T16:45:43.521Z,7.28
2022-10-04T16:48:33.671Z,7.70
2022-10-04T16:51:07.338Z,7.78
2022-10-04T16:53:59.625Z,7.22
2022-10-04T16:56:31.825Z,6.45
2022-10-04T16:59:01.245Z,6.87
2022-10-04T17:01:49.660Z,5.10
2022-10-04T17:04:39.370Z,5.35
2022-10-04T17:07:45.233Z,5.03
2022-10-04T17:10:35.340Z,5.60
2022-10-04T17:13:21.094Z,6.85
2022-10-04T17:15:49.220Z,5.68
2022-10-04T17:18:51.250Z,5.50
2022-10-04T17:22:10.553Z,7.30
2022-10-04T17:24:51.527Z,6.10
2022-10-04T17:27:26.187Z,4.68
2022-10-04T17:29:56.433Z,4.40
2022-10-04T17:32:38.894Z,3.50
2022-10-04T17:35:46.168Z,3.70
2022-10-04T17:38:27.306Z,4.15
2022-10-04T17:41:16.307Z,3.62
2022-10-04T17:43:56.504Z,3.97
2022-10-04T17:46:26.649Z,5.78
2022-10-04T17:49:18.543Z,4.65
2022-10-04T17:52:14.640Z,4.62
2022-10-04T17:55:08.489Z,4.07
2022-10-04T17:57:45.165Z,4.25
2022-10-04T18:00:14.398Z,4.03
2022-10-04T18:03:03.924Z,4.45
2022-10-04T18:05:41.728Z,4.20
2022-10-04T18:08:36.068Z,5.50
2022-10-04T18:11:15.220Z,4.68
2022-10-04T18:14:09.803Z,5.75
2022-10-04T18:16:52.189Z,4.43
2022-10-04T18:19:38.415Z,4.60
2022-10-04T18:22:19.108Z,3.30
2022-10-04T18:25:02.036Z,3.00
2022-10-04T18:27:33.373Z,3.30
2022-10-04T18:30:01.646Z,3.10
2022-10-04T18:32:33.569Z,2.85
2022-10-04T18:35:18.435Z,3.08
2022-10-04T18:37:46.056Z,3.12
2022-10-04T18:40:16.934Z,3.10
2022-10-04T18:42:52.476Z,3.87
2022-10-04T18:45:32.300Z,2.78
2022-10-04T18:48:02.295Z,3.17
2022-10-04T18:50:39.366Z,3.45
2022-10-04T18:53:40.199Z,3.25
2022-10-04T18:56:11.767Z,3.25
2022-10-04T18:59:27.212Z,3.55
2022-10-04T19:02:17.456Z,3.40
2022-10-04T19:05:15.415Z,3.50
2022-10-04T19:08:08.620Z,3.58
2022-10-04T19:11:05.709Z,3.50
2022-10-04T19:13:45.861Z,3.22
2022-10-04T19:16:19.237Z,3.87
2022-10-04T19:18:54.709Z,3.00
2022-10-04T19:21:40.002Z,3.90
2022-10-04T19:24:49.718Z,3.33
2022-10-04T19:27:36.407Z,3.10
2022-10-04T19:30:49.296Z,3.28
2022-10-04T19:33:38.167Z,3.12
2022-10-04T19:39:25.262Z,4.60
2022-10-04T19:42:06.720Z,3.90
2022-10-04T19:44:55.921Z,3.90
2022-10-04T19:47:40.119Z,3.80
2022-10-04T19:50:26.953Z,4.28
2022-10-04T19:53:07.310Z,4.30
2022-10-04T19:55:48.714Z,4.53
2022-10-04T19:58:25.725Z,4.50
2022-10-04T20:00:53.502Z,4.25
2022-10-04T20:03:21.871Z,5.12
2022-10-04T20:05:58.263Z,6.43
2022-10-04T20:09:25.445Z,6.80
2022-10-04T20:11:53.961Z,6.37
2022-10-04T20:14:23.291Z,6.28
2022-10-04T20:16:53.011Z,5.85
2022-10-04T20:19:33.035Z,5.93
2022-10-04T20:22:13.116Z,6.40
2022-10-04T20:24:40.651Z,6.07
2022-10-04T20:27:30.422Z,7.03
2022-10-04T20:30:04.265Z,7.35
2022-10-04T20:32:37.088Z,8.25
2022-10-04T20:35:15.953Z,6.22
2022-10-04T20:38:13.549Z,6.62
2022-10-04T20:40:41.326Z,6.03
2022-10-04T20:43:15.493Z,5.95
2022-10-04T20:45:54.943Z,5.85
2022-10-04T20:48:26.032Z,6.60
2022-10-04T20:50:54.726Z,5.97
2022-10-04T20:53:31.686Z,5.80
2022-10-04T20:56:32.452Z,5.45
2022-10-04T20:59:02.303Z,5.47
2022-10-04T21:01:35.855Z,5.75
2022-10-04T21:04:16.263Z,5.20
2022-10-04T21:07:04.274Z,5.18
2022-10-04T21:09:33.572Z,5.10
2022-10-04T21:12:02.488Z,5.18
2022-10-04T21:14:35.613Z,4.85
2022-10-04T21:17:23.699Z,5.62
2022-10-04T21:19:51.615Z,5.75
2022-10-04T21:22:25.475Z,4.78
2022-10-04T21:25:00.152Z,4.90
2022-10-04T21:27:35.601Z,5.55
2022-10-04T21:30:12.771Z,5.35
2022-10-04T21:32:40.912Z,5.90
2022-10-04T21:35:09.588Z,5.10
2022-10-04T21:37:37.153Z,5.37
2022-10-04T21:40:06.871Z,5.00
2022-10-04T21:42:35.115Z,4.72
2022-10-04T21:45:02.715Z,4.80
2022-10-04T21:47:30.661Z,4.80
2022-10-04T21:49:59.086Z,4.60
2022-10-04T21:52:26.709Z,5.15
2022-10-04T21:54:54.857Z,5.50
2022-10-04T21:57:24.098Z,5.07
2022-10-04T21:59:52.598Z,4.70
2022-10-04T22:02:20.635Z,4.85
2022-10-04T22:04:48.667Z,4.62
2022-10-04T22:07:16.244Z,4.50
2022-10-04T22:09:43.772Z,4.90
2022-10-04T22:12:11.701Z,4.37
2022-10-04T22:14:39.304Z,4.40
2022-10-04T22:17:06.860Z,4.70
2022-10-04T22:19:36.433Z,4.28
2022-10-04T22:22:04.005Z,4.50
2022-10-04T22:24:32.028Z,4.37
2022-10-04T22:27:00.425Z,4.28
2022-10-04T22:29:28.142Z,4.43
2022-10-04T22:31:55.802Z,4.40
2022-10-04T22:34:23.777Z,5.28
2022-10-04T22:36:53.132Z,4.43
2022-10-04T22:39:21.565Z,4.57
2022-10-04T22:42:01.332Z,4.28
2022-10-04T22:44:34.528Z,4.40
2022-10-04T22:47:04.554Z,4.18
2022-10-04T22:49:37.377Z,4.22
2022-10-04T22:52:20.817Z,4.25
2022-10-04T22:54:53.800Z,4.43
2022-10-04T22:57:21.879Z,4.22
2022-10-04T22:59:51.999Z,4.18
2022-10-04T23:02:26.927Z,4.40
2022-10-04T23:04:59.356Z,3.97
2022-10-04T23:07:27.030Z,4.40
2022-10-04T23:09:55.974Z,4.53
2022-10-04T23:12:23.609Z,4.60
2022-10-04T23:14:51.354Z,4.00
2022-10-04T23:17:31.543Z,4.18
2022-10-04T23:20:16.144Z,4.10
2022-10-04T23:22:49.203Z,4.15
2022-10-04T23:25:27.087Z,4.10
2022-10-04T23:28:03.045Z,4.18
2022-10-04T23:30:30.985Z,4.28
2022-10-04T23:33:01.182Z,4.35
2022-10-04T23:35:34.138Z,4.00
2022-10-04T23:38:07.293Z,3.97
2022-10-04T23:40:35.149Z,4.20
2022-10-04T23:43:05.089Z,3.92
2022-10-04T23:45:35.269Z,4.00
2022-10-04T23:48:03.343Z,4.22
2022-10-04T23:50:36.388Z,4.50
2022-10-04T23:53:06.617Z,3.85
2022-10-04T23:55:38.148Z,3.85
2022-10-04T23:58:22.547Z,4.20
